Latest Weather Observations for Portland Harbour

IDV60801

Issued at 11:32 pm EST Saturday 24 June 2017 (issued every 30 minutes, with the page automatically refreshed every 10 minutes)

About weather observations | Map of weather stations | Latest weather observations for VIC | Other Formats
Station Details ID: 090192 Name: PORTLAND NTC AWS Lat: -38.34 Lon: 141.61 Height: 0.0 m
Data from the previous 72 hours. | See also: Recent months for locations in Victoria
Date/Time
EST
Temp
°C
App
Temp
°C
Dew
Point
°C
Rel
Hum
%
Delta-T
°C
Wind Press
QNH
hPa
Press
MSL
hPa
Rain since
9am
mm
Dir  Spd
km/h
Gust
km/h
Spd
kts
Gust
kts
24/11:30pm 8.7 - - - - NW 15 20 8 11 1016.2 1016.2 -
24/11:00pm 8.2 - - - - NW 9 15 5 8 1016.3 1016.3 -
24/10:30pm 8.3 - - - - NW 15 20 8 11 1016.4 1016.4 -
24/10:00pm 8.1 - - - - NW 9 13 5 7 1016.8 1016.8 -
24/09:30pm 8.7 - - - - NW 15 22 8 12 1016.8 1016.8 -
24/09:00pm 8.6 - - - - NW 17 22 9 12 1016.9 1016.9 -
24/08:30pm 8.3 - - - - W 6 9 3 5 1017.0 1017.0 -
24/08:00pm 8.5 - - - - NW 11 17 6 9 1017.0 1017.0 -
24/07:30pm 8.8 - - - - NW 11 17 6 9 1017.1 1017.1 -
24/07:00pm 8.8 - - - - NW 9 15 5 8 1017.0 1017.0 -
24/06:30pm 8.9 - - - - WNW 13 17 7 9 1017.1 1017.1 -
24/06:00pm 9.3 - - - - NNW 11 17 6 9 1017.1 1017.1 -
24/05:30pm 9.0 - - - - WNW 7 9 4 5 1017.3 1017.3 -
24/05:00pm 9.2 - - - - WNW 15 20 8 11 1017.4 1017.4 -
24/04:30pm 9.9 - - - - W 11 15 6 8 1017.2 1017.2 -
24/04:00pm 9.4 - - - - WNW 13 20 7 11 1017.3 1017.3 -
24/03:30pm 10.3 - - - - WNW 13 17 7 9 1017.2 1017.2 -
24/03:00pm 9.5 - - - - WNW 19 26 10 14 1017.4 1017.4 -
24/02:30pm 10.2 - - - - NW 19 24 10 13 1017.3 1017.3 -
24/02:00pm 10.5 - - - - W 17 26 9 14 1017.4 1017.4 -
24/01:30pm 11.3 - - - - WNW 7 11 4 6 1017.8 1017.8 -
24/01:00pm 10.8 - - - - NW 15 39 8 21 1017.9 1017.9 -
24/12:30pm 10.8 - - - - NW 13 24 7 13 1018.3 1018.3 -
24/12:00pm 10.7 - - - - NW 11 17 6 9 1018.6 1018.6 -
24/11:30am 11.1 - - - - WNW 9 20 5 11 1018.8 1018.8 -
24/11:00am 11.2 - - - - SW 7 13 4 7 1019.2 1019.2 -
24/10:30am 11.2 - - - - WSW 7 17 4 9 1019.2 1019.2 -
24/10:00am 10.2 - - - - WNW 9 11 5 6 1019.1 1019.1 -
24/09:30am 9.6 - - - - WNW 7 9 4 5 1019.0 1019.0 -
24/09:00am 8.9 - - - - W 6 9 3 5 1019.0 1019.0 -
24/08:30am 8.1 - - - - W 11 20 6 11 1019.0 1019.0 -
24/08:00am 8.5 - - - - WSW 9 13 5 7 1018.7 1018.7 -
24/07:30am 8.9 - - - - WSW 9 13 5 7 1018.6 1018.6 -
24/07:00am 8.7 - - - - WSW 11 19 6 10 1018.4 1018.4 -
24/06:30am 8.4 - - - - SW 6 13 3 7 1017.9 1017.9 -
24/06:00am 8.5 - - - - WNW 7 9 4 5 1017.5 1017.5 -
24/05:30am 8.8 - - - - WSW 6 9 3 5 1017.4 1017.4 -
24/05:00am 9.6 - - - - SSW 11 17 6 9 1017.2 1017.2 -
24/04:30am 9.5 - - - - SW 11 15 6 8 1017.0 1017.0 -
24/04:00am 9.7 - - - - SW 13 17 7 9 1017.0 1017.0 -
24/03:30am 10.0 - - - - SW 15 20 8 11 1016.9 1016.9 -
24/03:00am 10.3 - - - - SW 15 22 8 12 1016.8 1016.8 -
24/02:30am 10.3 - - - - SW 13 19 7 10 1016.9 1016.9 -
24/02:00am 10.5 - - - - SW 20 32 11 17 1016.8 1016.8 -
24/01:30am 10.7 - - - - SSW 22 35 12 19 1016.7 1016.7 -
24/01:00am 10.9 - - - - SW 22 33 12 18 1016.7 1016.7 -
24/12:30am 11.1 - - - - SW 20 30 11 16 1016.7 1016.7 -
24/12:00am 11.1 - - - - SSW 26 37 14 20 1016.7 1016.7 -
 
Date/Time
EST
Temp
°C
App
Temp
°C
Dew
Point
°C
Rel
Hum
%
Delta-T
°C
Wind Press
QNH
hPa
Press
MSL
hPa
Rain since
9am
mm
Dir  Spd
km/h
Gust
km/h
Spd
kts
Gust
kts
23/11:30pm 11.1 - - - - SSW 20 37 11 20 1016.6 1016.6 -
23/11:00pm 11.0 - - - - SSW 30 44 16 24 1016.5 1016.5 -
23/10:30pm 11.2 - - - - SSW 26 35 14 19 1016.2 1016.2 -
23/10:00pm 11.0 - - - - SSW 20 35 11 19 1016.1 1016.1 -
23/09:30pm 11.0 - - - - SSW 30 48 16 26 1015.7 1015.7 -
23/09:27pm 10.9 - - - - SSW 28 48 15 26 1015.7 1015.7 -
23/09:00pm 11.6 - - - - SSW 28 37 15 20 1015.5 1015.5 -
23/08:30pm 12.0 - - - - SSW 26 35 14 19 1015.1 1015.1 -
23/08:00pm 12.9 - - - - SW 24 37 13 20 1014.7 1014.7 -
23/07:30pm 12.9 - - - - WSW 22 33 12 18 1014.3 1014.3 -
23/07:00pm 12.8 - - - - WSW 20 30 11 16 1013.9 1013.9 -
23/06:30pm 12.0 - - - - W 13 20 7 11 1013.6 1013.6 -
23/06:00pm 12.0 - - - - WSW 22 30 12 16 1013.4 1013.4 -
23/05:30pm 12.3 - - - - SW 20 32 11 17 1013.3 1013.3 -
23/05:00pm 12.7 - - - - SW 33 46 18 25 1013.3 1013.3 -
23/04:30pm 15.0 - - - - W 26 35 14 19 1012.6 1012.6 -
23/04:00pm 15.3 - - - - W 26 44 14 24 1012.6 1012.6 -
23/03:30pm 15.5 - - - - W 28 41 15 22 1012.6 1012.6 -
23/03:00pm 15.1 - - - - W 22 33 12 18 1012.6 1012.6 -
23/02:30pm 15.0 - - - - W 22 32 12 17 1012.6 1012.6 -
23/02:00pm 14.1 - - - - WNW 15 24 8 13 1012.8 1012.8 -
23/01:30pm 14.1 - - - - NW 24 35 13 19 1012.9 1012.9 -
23/01:00pm 13.5 - - - - NW 24 33 13 18 1013.1 1013.1 -
23/12:30pm 13.2 - - - - NW 24 37 13 20 1013.4 1013.4 -
23/12:00pm 11.7 - - - - NNW 20 30 11 16 1013.8 1013.8 -
23/11:30am 10.7 - - - - NNW 26 35 14 19 1014.3 1014.3 -
23/11:00am 11.5 - - - - NW 15 20 8 11 1014.7 1014.7 -
23/10:30am 11.1 - - - - NW 17 26 9 14 1014.9 1014.9 -
23/10:00am 10.6 - - - - NW 19 28 10 15 1015.2 1015.2 -
23/09:30am 9.9 - - - - NW 19 28 10 15 1015.3 1015.3 -
23/09:00am 9.5 - - - - NW 19 26 10 14 1015.4 1015.4 -
23/08:30am 9.6 - - - - NNW 28 33 15 18 1014.9 1014.9 -
23/08:00am 8.8 - - - - NW 13 22 7 12 1015.6 1015.6 -
23/07:30am 9.3 - - - - NNW 17 24 9 13 1015.6 1015.6 -
23/07:00am 9.2 - - - - NW 15 20 8 11 1015.8 1015.8 -
23/06:30am 9.7 - - - - NNW 22 30 12 16 1015.7 1015.7 -
23/06:00am 9.7 - - - - NNW 24 32 13 17 1015.8 1015.8 -
23/05:30am 9.9 - - - - NNW 24 32 13 17 1015.9 1015.9 -
23/05:00am 10.0 - - - - NNW 22 33 12 18 1016.1 1016.1 -
23/04:30am 10.2 - - - - NNW 22 32 12 17 1016.5 1016.5 -
23/04:00am 10.1 - - - - NNW 22 30 12 16 1016.6 1016.6 -
23/03:30am 9.9 - - - - NNW 20 26 11 14 1017.0 1017.0 -
23/03:00am 9.6 - - - - NW 15 20 8 11 1017.5 1017.5 -
23/02:30am 9.2 - - - - NW 9 15 5 8 1017.9 1017.9 -
23/02:00am 8.9 - - - - WNW 9 17 5 9 1018.1 1018.1 -
23/01:30am 9.8 - - - - NW 9 15 5 8 1018.4 1018.4 -
23/01:00am 9.4 - - - - WSW 6 7 3 4 1018.8 1018.8 -
23/12:30am 10.7 - - - - NW 13 19 7 10 1018.9 1018.9 -
23/12:00am 9.6 - - - - WNW 7 11 4 6 1019.6 1019.6 -
 
Date/Time
EST
Temp
°C
App
Temp
°C
Dew
Point
°C
Rel
Hum
%
Delta-T
°C
Wind Press
QNH
hPa
Press
MSL
hPa
Rain since
9am
mm
Dir  Spd
km/h
Gust
km/h
Spd
kts
Gust
kts
22/11:30pm 9.8 - - - - WNW 7 11 4 6 1019.9 1019.9 -
22/11:00pm 10.7 - - - - NW 7 17 4 9 1020.2 1020.2 -
22/10:30pm 11.4 - - - - NNW 15 19 8 10 1020.5 1020.5 -
22/10:00pm 11.5 - - - - NNW 11 13 6 7 1020.8 1020.8 -
22/09:30pm 11.3 - - - - NW 9 13 5 7 1021.3 1021.3 -
22/09:00pm 12.0 - - - - NNW 11 13 6 7 1021.4 1021.4 -
22/08:30pm 12.1 - - - - NW 11 20 6 11 1021.5 1021.5 -
22/08:00pm 12.5 - - - - NW 13 17 7 9 1021.5 1021.5 -
22/07:30pm 12.9 - - - - NW 17 22 9 12 1021.5 1021.5 -
22/07:00pm 12.9 - - - - NW 13 17 7 9 1021.6 1021.6 -
22/06:30pm 13.2 - - - - NNW 11 13 6 7 1021.8 1021.8 -
22/06:00pm 13.8 - - - - NNW 11 15 6 8 1021.9 1021.9 -
22/05:30pm 14.0 - - - - NNW 11 15 6 8 1021.9 1021.9 -
22/05:00pm 14.3 - - - - NNW 15 20 8 11 1021.8 1021.8 -
22/04:30pm 14.6 - - - - NNW 13 19 7 10 1021.9 1021.9 -
22/04:00pm 14.7 - - - - NNW 20 24 11 13 1021.8 1021.8 -
22/03:30pm 14.9 - - - - NNW 22 28 12 15 1021.8 1021.8 -
22/03:00pm 14.7 - - - - NW 20 28 11 15 1022.2 1022.2 -
22/02:30pm 14.8 - - - - NW 19 26 10 14 1022.5 1022.5 -
22/02:00pm 15.1 - - - - NNW 13 26 7 14 1023.1 1023.1 -
22/01:30pm 14.5 - - - - N 15 19 8 10 1023.5 1023.5 -
22/01:00pm 13.8 - - - - N 15 19 8 10 1024.1 1024.1 -
22/12:30pm 13.6 - - - - NNW 9 19 5 10 1024.6 1024.6 -
22/12:00pm 13.1 - - - - WNW 9 15 5 8 1025.3 1025.3 -
22/11:30am 12.2 - - - - WNW 6 9 3 5 1025.8 1025.8 -
22/11:00am 11.7 - - - - N 19 22 10 12 1026.0 1026.0 -
22/10:30am 11.4 - - - - NNW 13 17 7 9 1026.4 1026.4 -
22/10:00am 11.2 - - - - NNW 9 13 5 7 1026.4 1026.4 -
22/09:30am 10.4 - - - - WNW 2 6 1 3 1026.4 1026.4 -
22/09:00am 10.4 - - - - NNW 11 17 6 9 1026.5 1026.5 -
22/08:30am 10.9 - - - - N 13 17 7 9 1026.6 1026.6 -
22/08:00am 11.0 - - - - NNW 4 6 2 3 1026.6 1026.6 -
22/07:30am 10.9 - - - - NNW 7 13 4 7 1026.4 1026.4 -
22/07:00am 10.1 - - - - W 6 6 3 3 1026.6 1026.6 -
22/06:30am 10.0 - - - - SW 6 7 3 4 1026.4 1026.4 -
22/06:00am 10.4 - - - - WNW 6 7 3 4 1026.4 1026.4 -
22/05:30am 10.4 - - - - W 4 6 2 3 1026.3 1026.3 -
22/05:00am 10.4 - - - - WNW 4 6 2 3 1026.4 1026.4 -
22/04:30am 10.1 - - - - WSW 4 7 2 4 1026.4 1026.4 -
22/04:00am 9.9 - - - - WSW 7 9 4 5 1026.7 1026.7 -
22/03:30am 10.0 - - - - W 4 6 2 3 1026.6 1026.6 -
22/03:00am 9.7 - - - - W 4 7 2 4 1027.0 1027.0 -
22/02:30am 10.0 - - - - WSW 2 4 1 2 1026.9 1026.9 -
22/02:00am 9.7 - - - - SW 7 11 4 6 1027.1 1027.1 -
22/01:30am 10.1 - - - - SW 2 4 1 2 1027.1 1027.1 -
22/01:00am 10.0 - - - - W 4 6 2 3 1027.4 1027.4 -
22/12:30am 10.3 - - - - W 4 6 2 3 1027.8 1027.8 -
22/12:00am 10.1 - - - - W 7 9 4 5 1028.1 1028.1 -

Other Formats:

Comma delimited format used in spreadsheet applications
http://www.bom.gov.au/fwo/IDV60801/IDV60801.95826.axf

JavaScript Object Notation format (JSON) in row-major order
http://www.bom.gov.au/fwo/IDV60801/IDV60801.95826.json